createdAt,value
2022-12-06T00:01:06.726Z,94394.59
2022-12-06T00:03:34.055Z,94388.41
2022-12-06T00:06:03.334Z,94386.94
2022-12-06T00:08:29.801Z,94397.53
2022-12-06T00:11:03.497Z,94391.63
2022-12-06T00:13:30.065Z,94389.03
2022-12-06T00:16:00.339Z,94389.56
2022-12-06T00:18:26.818Z,94387.78
2022-12-06T00:20:53.268Z,94387.00
2022-12-06T00:23:19.723Z,94396.28
2022-12-06T00:25:46.185Z,94397.81
2022-12-06T00:28:12.646Z,94391.69
2022-12-06T00:30:39.097Z,94386.53
2022-12-06T00:33:05.641Z,94386.31
2022-12-06T00:35:32.142Z,94378.34
2022-12-06T00:37:58.580Z,94378.59
2022-12-06T00:40:25.051Z,94364.94
2022-12-06T00:42:51.485Z,94367.72
2022-12-06T00:45:17.948Z,94370.56
2022-12-06T00:47:44.430Z,94366.66
2022-12-06T00:50:11.305Z,94364.31
2022-12-06T00:52:37.785Z,94359.16
2022-12-06T00:55:04.517Z,94359.16
2022-12-06T00:57:30.985Z,94356.38
2022-12-06T00:59:57.648Z,94361.28
2022-12-06T01:02:24.341Z,94364.88
2022-12-06T01:04:50.836Z,94369.25
2022-12-06T01:07:17.357Z,94359.94
2022-12-06T01:09:43.913Z,94360.25
2022-12-06T01:12:10.387Z,94355.13
2022-12-06T01:14:36.849Z,94352.00
2022-12-06T01:17:03.359Z,94360.75
2022-12-06T01:19:29.849Z,94362.00
2022-12-06T01:21:56.276Z,94365.56
2022-12-06T01:24:23.743Z,94359.63
2022-12-06T01:26:50.175Z,94361.22
2022-12-06T01:29:16.921Z,94364.78
2022-12-06T01:31:43.332Z,94363.25
2022-12-06T01:34:15.857Z,94367.13
2022-12-06T01:36:43.510Z,94372.28
2022-12-06T01:39:10.765Z,94372.28
2022-12-06T01:41:38.798Z,94367.91
2022-12-06T01:44:05.798Z,94357.38
2022-12-06T01:46:40.134Z,94363.06
2022-12-06T01:49:12.733Z,94360.25
2022-12-06T01:51:57.708Z,94359.72
2022-12-06T01:54:25.554Z,94357.38
2022-12-06T01:56:53.750Z,94357.16
2022-12-06T01:59:21.774Z,94338.53
2022-12-06T02:01:49.317Z,94352.00
2022-12-06T02:04:17.733Z,94343.50
2022-12-06T02:06:45.702Z,94345.31
2022-12-06T02:09:13.573Z,94347.03
2022-12-06T02:11:40.198Z,94335.97
2022-12-06T02:14:11.369Z,94338.53
2022-12-06T02:17:05.767Z,94335.97
2022-12-06T02:19:53.493Z,94339.06
2022-12-06T02:23:05.161Z,94331.59
2022-12-06T02:26:16.142Z,94332.13
2022-12-06T02:28:48.606Z,94333.44
2022-12-06T02:31:23.017Z,94328.28
2022-12-06T02:33:56.552Z,94332.91
2022-12-06T02:36:47.287Z,94329.88
2022-12-06T02:39:27.316Z,94322.69
2022-12-06T02:42:13.150Z,94323.47
2022-12-06T02:44:44.165Z,94325.56
2022-12-06T02:47:12.945Z,94318.63
2022-12-06T02:49:44.941Z,94320.16
2022-12-06T02:52:12.991Z,94308.31
2022-12-06T02:54:41.419Z,94304.44
2022-12-06T02:57:07.836Z,94306.44
2022-12-06T02:59:34.265Z,94304.13
2022-12-06T03:02:04.327Z,94308.75
2022-12-06T03:05:00.127Z,94306.19
2022-12-06T03:07:46.298Z,94305.13
2022-12-06T03:10:38.046Z,94306.72
2022-12-06T03:13:16.223Z,94299.47
2022-12-06T03:15:57.549Z,94295.81
2022-12-06T03:18:31.880Z,94301.44
2022-12-06T03:21:05.237Z,94292.31
2022-12-06T03:23:39.332Z,94303.09
2022-12-06T03:26:10.431Z,94299.69
2022-12-06T03:28:38.828Z,94301.97
2022-12-06T03:31:11.805Z,94300.09
2022-12-06T03:33:57.321Z,94292.88
2022-12-06T03:36:26.198Z,94287.72
2022-12-06T03:39:00.004Z,94289.53
2022-12-06T03:41:31.091Z,94288.50
2022-12-06T03:43:59.195Z,94282.03
2022-12-06T03:46:34.358Z,94279.72
2022-12-06T03:49:11.981Z,94275.03
2022-12-06T03:51:40.475Z,94277.28
2022-12-06T03:54:08.098Z,94266.63
2022-12-06T03:56:36.928Z,94267.34
2022-12-06T03:59:05.408Z,94280.75
2022-12-06T04:01:32.162Z,94277.63
2022-12-06T04:03:58.739Z,94277.09
2022-12-06T04:06:25.523Z,94273.22
2022-12-06T04:08:52.086Z,94270.34
2022-12-06T04:11:18.537Z,94274.47
2022-12-06T04:13:45.057Z,94266.19
2022-12-06T04:16:30.419Z,94270.34
2022-12-06T04:18:56.825Z,94264.41
2022-12-06T04:21:32.023Z,94260.84
2022-12-06T04:23:58.558Z,94265.72
2022-12-06T04:26:26.258Z,94258.56
2022-12-06T04:29:12.786Z,94252.66
2022-12-06T04:31:58.767Z,94254.25
2022-12-06T04:34:43.949Z,94246.31
2022-12-06T04:37:28.893Z,94243.50
2022-12-06T04:39:55.296Z,94244.06
2022-12-06T04:42:40.154Z,94243.03
2022-12-06T04:45:07.682Z,94243.81
2022-12-06T04:47:34.103Z,94249.22
2022-12-06T04:50:00.816Z,94255.66
2022-12-06T04:52:32.691Z,94246.91
2022-12-06T04:55:01.781Z,94239.94
2022-12-06T04:57:28.191Z,94239.69
2022-12-06T04:59:54.621Z,94235.09
2022-12-06T05:02:21.110Z,94244.34
2022-12-06T05:04:47.581Z,94238.19
2022-12-06T05:07:14.132Z,94233.53
2022-12-06T05:09:40.560Z,94239.47
2022-12-06T05:12:07.412Z,94243.28
2022-12-06T05:14:33.937Z,94236.03
2022-12-06T05:17:00.413Z,94240.34
2022-12-06T05:19:27.591Z,94248.06
2022-12-06T05:21:54.025Z,94236.63
2022-12-06T05:24:20.531Z,94233.72
2022-12-06T05:26:47.007Z,94233.25
2022-12-06T05:29:13.464Z,94243.53
2022-12-06T05:31:39.916Z,94241.22
2022-12-06T05:34:06.369Z,94236.31
2022-12-06T05:36:32.781Z,94227.84
2022-12-06T05:38:59.184Z,94237.81
2022-12-06T05:41:25.746Z,94246.50
2022-12-06T05:43:52.206Z,94239.28
2022-12-06T05:46:18.871Z,94237.69
2022-12-06T05:48:45.585Z,94237.88
2022-12-06T05:51:12.084Z,94239.38
2022-12-06T05:53:38.842Z,94241.19
2022-12-06T05:56:11.125Z,94235.97
2022-12-06T05:58:38.398Z,94238.53
2022-12-06T06:01:06.950Z,94233.88
2022-12-06T06:03:34.144Z,94234.41
2022-12-06T06:06:01.845Z,94240.84
2022-12-06T06:08:29.242Z,94236.03
2022-12-06T06:10:56.137Z,94242.25
2022-12-06T06:13:23.129Z,94242.81
2022-12-06T06:15:50.099Z,94233.28
2022-12-06T06:18:18.161Z,94234.06
2022-12-06T06:20:49.997Z,94240.78
2022-12-06T06:23:17.157Z,94237.75
2022-12-06T06:25:43.693Z,94237.50
2022-12-06T06:28:10.118Z,94223.31
2022-12-06T06:30:36.541Z,94229.09
2022-12-06T06:33:02.948Z,94232.72
2022-12-06T06:35:29.553Z,94233.56
2022-12-06T06:37:55.969Z,94232.84
2022-12-06T06:40:22.398Z,94232.63
2022-12-06T06:42:48.869Z,94242.91
2022-12-06T06:45:15.294Z,94239.56
2022-12-06T06:47:41.708Z,94243.69
2022-12-06T06:50:08.879Z,94239.81
2022-12-06T06:52:35.301Z,94240.03
2022-12-06T06:55:01.725Z,94241.06
2022-12-06T06:57:28.622Z,94247.75
2022-12-06T06:59:56.297Z,94235.94
2022-12-06T07:02:23.135Z,94240.56
2022-12-06T07:04:49.908Z,94236.41
2022-12-06T07:07:20.920Z,94246.75
2022-12-06T07:09:47.667Z,94241.81
2022-12-06T07:12:14.491Z,94244.09
2022-12-06T07:14:40.974Z,94247.69
2022-12-06T07:17:07.564Z,94238.41
2022-12-06T07:19:34.001Z,94239.44
2022-12-06T07:22:00.410Z,94242.06
2022-12-06T07:24:26.815Z,94246.41
2022-12-06T07:26:54.495Z,94253.91
2022-12-06T07:29:20.946Z,94251.09
2022-12-06T07:31:47.381Z,94245.88
2022-12-06T07:34:13.790Z,94250.09
2022-12-06T07:36:40.222Z,94247.28
2022-12-06T07:39:11.524Z,94245.47
2022-12-06T07:41:59.512Z,94237.78
2022-12-06T07:45:01.956Z,94245.22
2022-12-06T07:47:33.983Z,94238.56
2022-12-06T07:50:00.693Z,94236.50
2022-12-06T07:52:32.067Z,94236.50
2022-12-06T07:54:58.556Z,94237.06
2022-12-06T07:57:25.019Z,94236.56
2022-12-06T07:59:51.480Z,94230.50
2022-12-06T08:02:20.495Z,94224.63
2022-12-06T08:04:47.218Z,94222.88
2022-12-06T08:07:14.860Z,94230.13
2022-12-06T08:09:41.390Z,94223.72
2022-12-06T08:12:09.070Z,94234.31
2022-12-06T08:14:36.362Z,94227.38
2022-12-06T08:17:03.999Z,94228.69
2022-12-06T08:19:30.449Z,94230.25
2022-12-06T08:21:57.223Z,94232.34
2022-12-06T08:24:23.672Z,94226.13
2022-12-06T08:26:52.145Z,94221.78
2022-12-06T08:29:19.489Z,94226.72
2022-12-06T08:31:46.334Z,94229.28
2022-12-06T08:34:13.903Z,94234.44
2022-12-06T08:36:40.731Z,94227.19
2022-12-06T08:39:08.102Z,94227.97
2022-12-06T08:41:53.320Z,94236.47
2022-12-06T08:44:20.117Z,94232.63
2022-12-06T08:46:47.459Z,94242.44
2022-12-06T08:49:15.806Z,94228.28
2022-12-06T08:51:43.087Z,94225.53
2022-12-06T08:54:13.775Z,94229.94
2022-12-06T08:56:40.306Z,94230.00
2022-12-06T08:59:07.055Z,94226.66
2022-12-06T09:01:37.868Z,94240.34
2022-12-06T09:04:05.800Z,94240.88
2022-12-06T09:06:32.281Z,94235.19
2022-12-06T09:08:58.702Z,94235.72
2022-12-06T09:11:26.013Z,94244.53
2022-12-06T09:13:52.505Z,94236.84
2022-12-06T09:16:22.195Z,94246.66
2022-12-06T09:18:49.562Z,94233.28
2022-12-06T09:21:19.259Z,94238.50
2022-12-06T09:23:46.123Z,94243.19
2022-12-06T09:26:12.625Z,94241.13
2022-12-06T09:28:41.994Z,94243.22
2022-12-06T09:31:10.021Z,94242.75
2022-12-06T09:33:36.549Z,94247.94
2022-12-06T09:36:08.557Z,94239.50
2022-12-06T09:38:36.988Z,94231.50
2022-12-06T09:41:31.836Z,94242.91
2022-12-06T09:44:50.715Z,94235.69
2022-12-06T09:47:45.436Z,94238.78
2022-12-06T09:50:39.448Z,94235.22
2022-12-06T09:53:22.609Z,94230.53
2022-12-06T09:56:06.310Z,94235.91
2022-12-06T09:58:45.441Z,94234.63
2022-12-06T10:01:32.820Z,94233.59
2022-12-06T10:04:28.549Z,94235.41
2022-12-06T10:07:04.666Z,94227.84
2022-12-06T10:09:59.458Z,94227.94
2022-12-06T10:12:37.451Z,94221.22
2022-12-06T10:15:23.855Z,94225.09
2022-12-06T10:17:52.464Z,94218.69
2022-12-06T10:20:33.041Z,94214.34
2022-12-06T10:23:47.650Z,94214.94
2022-12-06T10:26:15.513Z,94217.78
2022-12-06T10:29:00.991Z,94218.84
2022-12-06T10:31:37.778Z,94208.03
2022-12-06T10:34:17.365Z,94207.47
2022-12-06T10:37:14.901Z,94208.59
2022-12-06T10:39:51.701Z,94210.66
2022-12-06T10:42:56.949Z,94207.09
2022-12-06T10:45:50.995Z,94213.00
2022-12-06T10:48:34.571Z,94204.72
2022-12-06T10:51:11.398Z,94203.44
2022-12-06T10:53:49.734Z,94212.72
2022-12-06T10:56:25.330Z,94211.94
2022-12-06T10:58:58.522Z,94214.75
2022-12-06T11:01:31.170Z,94213.75
2022-12-06T11:04:04.101Z,94202.91
2022-12-06T11:06:54.669Z,94202.91
2022-12-06T11:09:41.398Z,94212.16
2022-12-06T11:12:31.711Z,94199.78
2022-12-06T11:15:21.044Z,94200.81
2022-12-06T11:17:52.284Z,94194.09
2022-12-06T11:20:28.762Z,94187.66
2022-12-06T11:23:18.984Z,94181.22
2022-12-06T11:26:24.804Z,94191.53
2022-12-06T11:29:05.676Z,94183.31
2022-12-06T11:31:40.592Z,94193.13
2022-12-06T11:34:16.017Z,94193.94
2022-12-06T11:36:43.550Z,94184.94
2022-12-06T11:39:13.537Z,94185.50
2022-12-06T11:41:42.289Z,94192.19
2022-12-06T11:44:21.615Z,94192.19
2022-12-06T11:46:54.377Z,94182.94
2022-12-06T11:49:35.089Z,94193.47
2022-12-06T11:52:08.669Z,94186.75
2022-12-06T11:54:44.305Z,94190.13
2022-12-06T11:57:23.080Z,94185.47
2022-12-06T12:00:08.092Z,94189.06
2022-12-06T12:02:40.033Z,94184.41
2022-12-06T12:05:19.527Z,94186.47
2022-12-06T12:07:55.370Z,94185.91
2022-12-06T12:10:38.590Z,94156.44
2022-12-06T12:13:29.843Z,94175.06
2022-12-06T12:16:11.165Z,94174.78
2022-12-06T12:18:41.443Z,94165.22
2022-12-06T12:21:08.222Z,94171.66
2022-12-06T12:23:43.631Z,94171.34
2022-12-06T12:26:19.447Z,94172.38
2022-12-06T12:29:04.014Z,94170.03
2022-12-06T12:31:30.625Z,94170.28
2022-12-06T12:34:18.950Z,94166.94
2022-12-06T12:36:50.947Z,94173.09
2022-12-06T12:39:30.454Z,94164.88
2022-12-06T12:41:57.113Z,94156.59
2022-12-06T12:44:38.713Z,94164.88
2022-12-06T12:47:19.828Z,94163.78
2022-12-06T12:50:03.287Z,94164.03
2022-12-06T12:52:35.342Z,94169.19
2022-12-06T12:55:29.656Z,94164.81
2022-12-06T12:57:59.075Z,94158.63
2022-12-06T13:00:30.752Z,94146.50
2022-12-06T13:03:50.051Z,94170.69
2022-12-06T13:06:28.441Z,94166.53
2022-12-06T13:08:59.417Z,94170.63
2022-12-06T13:11:27.022Z,94169.06
2022-12-06T13:13:55.817Z,94161.59
2022-12-06T13:16:35.270Z,94160.31
2022-12-06T13:19:02.199Z,94165.19
2022-12-06T13:21:34.469Z,94166.44
2022-12-06T13:24:11.840Z,94164.88
2022-12-06T13:26:50.061Z,94170.59
2022-12-06T13:29:36.233Z,94166.44
2022-12-06T13:32:13.957Z,94154.09
2022-12-06T13:35:06.460Z,94146.38
2022-12-06T13:37:34.667Z,94155.66
2022-12-06T13:40:02.618Z,94152.06
2022-12-06T13:42:38.036Z,94150.50
2022-12-06T13:45:39.234Z,94150.00
2022-12-06T13:48:25.953Z,94143.28
2022-12-06T13:51:03.900Z,94145.56
2022-12-06T13:53:33.929Z,94146.81
2022-12-06T13:56:21.662Z,94147.31
2022-12-06T13:58:54.164Z,94139.84
2022-12-06T14:01:40.691Z,94144.75
2022-12-06T14:06:55.497Z,94147.28
2022-12-06T14:09:23.652Z,94145.97
2022-12-06T14:11:50.634Z,94145.66
2022-12-06T14:14:23.260Z,94138.38
2022-12-06T14:16:54.274Z,94142.81
2022-12-06T14:19:43.684Z,94150.88
2022-12-06T14:22:21.560Z,94150.41
2022-12-06T14:25:21.613Z,94153.72
2022-12-06T14:27:50.888Z,94151.41
2022-12-06T14:30:25.829Z,94156.56
2022-12-06T14:32:55.597Z,94151.63
2022-12-06T14:35:28.729Z,94148.78
2022-12-06T14:38:01.803Z,94153.94
2022-12-06T14:41:01.249Z,94156.47
2022-12-06T14:43:30.570Z,94148.75
2022-12-06T14:46:02.877Z,94148.75
2022-12-06T14:48:51.796Z,94152.84
2022-12-06T14:51:23.959Z,94150.53
2022-12-06T14:53:50.610Z,94153.81
2022-12-06T14:56:36.480Z,94149.41
2022-12-06T14:59:10.761Z,94153.25
2022-12-06T15:01:47.838Z,94150.63
2022-12-06T15:04:42.324Z,94155.00
2022-12-06T15:07:39.387Z,94152.69
2022-12-06T15:10:23.325Z,94149.06
2022-12-06T15:12:57.434Z,94150.34
2022-12-06T15:15:42.107Z,94149.84
2022-12-06T15:18:23.193Z,94145.72
2022-12-06T15:20:50.192Z,94143.16
2022-12-06T15:23:25.704Z,94142.94
2022-12-06T15:25:52.286Z,94140.34
2022-12-06T15:28:20.046Z,94151.16
2022-12-06T15:30:46.749Z,94152.16
2022-12-06T15:33:22.829Z,94146.28
2022-12-06T15:35:50.320Z,94145.25
2022-12-06T15:38:16.754Z,94148.59
2022-12-06T15:40:46.626Z,94143.44
2022-12-06T15:43:32.468Z,94138.56
2022-12-06T15:46:01.304Z,94133.66
2022-12-06T15:48:34.897Z,94148.28
2022-12-06T15:51:01.516Z,94139.25
2022-12-06T15:53:29.180Z,94136.94
2022-12-06T15:55:55.900Z,94135.38
2022-12-06T15:58:22.845Z,94136.16
2022-12-06T16:00:50.293Z,94127.63
2022-12-06T16:03:16.934Z,94138.22
2022-12-06T16:05:43.354Z,94141.78
2022-12-06T16:08:09.884Z,94135.88
2022-12-06T16:11:03.476Z,94142.28
2022-12-06T16:13:23.357Z,94150.47
2022-12-06T16:15:51.505Z,94149.47
2022-12-06T16:18:18.176Z,94152.81
2022-12-06T16:20:44.775Z,94154.59
2022-12-06T16:23:49.814Z,94147.91
2022-12-06T16:26:20.131Z,94149.47
2022-12-06T16:28:46.521Z,94151.50
2022-12-06T16:31:13.910Z,94156.09
2022-12-06T16:33:40.662Z,94156.03
2022-12-06T16:36:17.998Z,94157.31
2022-12-06T16:38:44.529Z,94153.94
2022-12-06T16:41:19.847Z,94156.03
2022-12-06T16:43:46.552Z,94150.63
2022-12-06T16:46:22.162Z,94150.84
2022-12-06T16:48:55.493Z,94150.84
2022-12-06T16:51:22.384Z,94153.19
2022-12-06T16:53:49.687Z,94153.41
2022-12-06T16:56:16.133Z,94149.38
2022-12-06T16:58:42.688Z,94158.88
2022-12-06T17:01:21.158Z,94158.63
2022-12-06T17:03:57.020Z,94151.38
2022-12-06T17:06:24.541Z,94153.91
2022-12-06T17:08:52.897Z,94157.50
2022-12-06T17:11:43.571Z,94157.50
2022-12-06T17:14:10.802Z,94152.59
2022-12-06T17:16:38.267Z,94162.56
2022-12-06T17:19:06.701Z,94165.59
2022-12-06T17:21:33.350Z,94166.66
2022-12-06T17:24:01.032Z,94154.53
2022-12-06T17:26:29.200Z,94159.72
2022-12-06T17:28:56.090Z,94164.06
2022-12-06T17:31:22.641Z,94151.94
2022-12-06T17:33:49.118Z,94159.16
2022-12-06T17:36:16.793Z,94153.50
2022-12-06T17:38:45.227Z,94151.16
2022-12-06T17:41:38.283Z,94155.84
2022-12-06T17:44:05.572Z,94157.09
2022-12-06T17:46:32.131Z,94154.28
2022-12-06T17:48:58.718Z,94158.09
2022-12-06T17:51:27.453Z,94153.19
2022-12-06T17:53:54.354Z,94157.00
2022-12-06T17:56:26.271Z,94161.66
2022-12-06T17:58:54.141Z,94163.47
2022-12-06T18:01:21.797Z,94154.75
2022-12-06T18:03:56.401Z,94154.75
2022-12-06T18:06:25.457Z,94154.75
2022-12-06T18:08:52.549Z,94151.16
2022-12-06T18:11:19.613Z,94149.59
2022-12-06T18:13:46.553Z,94155.84
2022-12-06T18:16:14.437Z,94158.16
2022-12-06T18:18:41.913Z,94161.72
2022-12-06T18:21:10.532Z,94168.13
2022-12-06T18:23:40.935Z,94173.00
2022-12-06T18:26:16.064Z,94167.06
2022-12-06T18:28:44.412Z,94164.50
2022-12-06T18:31:12.534Z,94167.28
2022-12-06T18:33:39.827Z,94167.53
2022-12-06T18:36:06.840Z,94162.88
2022-12-06T18:38:33.458Z,94156.63
2022-12-06T18:41:05.732Z,94165.91
2022-12-06T18:43:33.850Z,94168.47
2022-12-06T18:46:01.868Z,94166.91
2022-12-06T18:48:28.936Z,94166.91
2022-12-06T18:50:55.494Z,94169.50
2022-12-06T18:53:22.705Z,94165.38
2022-12-06T18:55:50.110Z,94165.38
2022-12-06T18:58:16.666Z,94180.03
2022-12-06T19:00:44.062Z,94172.06
2022-12-06T19:03:10.613Z,94169.25
2022-12-06T19:06:01.152Z,94168.47
2022-12-06T19:08:23.435Z,94165.38
2022-12-06T19:10:49.928Z,94169.75
2022-12-06T19:13:16.363Z,94166.16
2022-12-06T19:15:42.797Z,94169.25
2022-12-06T19:18:13.376Z,94164.91
2022-12-06T19:20:39.829Z,94172.38
2022-12-06T19:23:11.303Z,94170.59
2022-12-06T19:25:37.842Z,94168.00
2022-12-06T19:28:06.295Z,94168.00
2022-12-06T19:30:32.931Z,94157.72
2022-12-06T19:32:59.383Z,94161.88
2022-12-06T19:35:25.801Z,94157.19
2022-12-06T19:37:52.822Z,94154.63
2022-12-06T19:40:19.252Z,94151.03
2022-12-06T19:43:04.498Z,94148.47
2022-12-06T19:45:30.889Z,94144.34
2022-12-06T19:47:57.515Z,94152.28
2022-12-06T19:50:23.961Z,94159.78
2022-12-06T19:52:50.378Z,94150.03
2022-12-06T19:55:16.908Z,94151.03
2022-12-06T19:57:45.400Z,94150.50
2022-12-06T20:00:12.503Z,94156.91
2022-12-06T20:02:38.957Z,94153.53
2022-12-06T20:05:05.873Z,94148.88
2022-12-06T20:07:32.299Z,94155.06
2022-12-06T20:09:58.899Z,94154.78
2022-12-06T20:12:25.530Z,94152.22
2022-12-06T20:14:52.045Z,94164.84
2022-12-06T20:17:21.862Z,94164.84
2022-12-06T20:19:49.145Z,94164.06
2022-12-06T20:22:17.764Z,94162.50
2022-12-06T20:24:44.828Z,94172.56
2022-12-06T20:27:11.618Z,94175.13
2022-12-06T20:29:38.090Z,94173.63
2022-12-06T20:32:04.737Z,94174.72
2022-12-06T20:34:34.461Z,94181.69
2022-12-06T20:37:03.771Z,94172.50
2022-12-06T20:39:32.866Z,94183.06
2022-12-06T20:41:59.430Z,94181.03
2022-12-06T20:44:25.958Z,94171.53
2022-12-06T20:46:53.987Z,94181.34
2022-12-06T20:49:20.528Z,94184.94
2022-12-06T20:51:52.675Z,94190.31
2022-12-06T20:54:20.685Z,94184.16
2022-12-06T20:56:50.788Z,94175.88
2022-12-06T20:59:17.203Z,94182.44
2022-12-06T21:01:43.660Z,94185.06
2022-12-06T21:04:13.414Z,94190.50
2022-12-06T21:06:40.580Z,94182.31
2022-12-06T21:09:07.065Z,94187.44
2022-12-06T21:11:33.763Z,94182.84
2022-12-06T21:14:00.169Z,94186.94
2022-12-06T21:16:29.558Z,94181.81
2022-12-06T21:19:02.045Z,94190.56
2022-12-06T21:21:32.513Z,94192.03
2022-12-06T21:24:03.400Z,94186.84
2022-12-06T21:26:31.806Z,94184.03
2022-12-06T21:28:58.822Z,94182.22
2022-12-06T21:31:30.381Z,94181.75
2022-12-06T21:33:57.232Z,94176.91
2022-12-06T21:36:24.015Z,94177.69
2022-12-06T21:38:50.524Z,94177.16
2022-12-06T21:41:17.115Z,94177.16
2022-12-06T21:43:43.985Z,94179.75
2022-12-06T21:46:12.985Z,94177.16
2022-12-06T21:48:39.612Z,94181.06
2022-12-06T21:51:11.557Z,94190.31
2022-12-06T21:53:38.940Z,94186.41
2022-12-06T21:56:10.558Z,94187.97
2022-12-06T21:58:37.523Z,94191.81
2022-12-06T22:01:06.186Z,94184.63
2022-12-06T22:03:32.656Z,94192.03
2022-12-06T22:06:02.805Z,94199.53
2022-12-06T22:08:29.259Z,94199.75
2022-12-06T22:10:55.665Z,94198.75
2022-12-06T22:13:22.104Z,94197.47
2022-12-06T22:15:48.655Z,94194.91
2022-12-06T22:18:15.177Z,94196.69
2022-12-06T22:20:41.707Z,94200.84
2022-12-06T22:23:08.194Z,94196.69
2022-12-06T22:25:39.472Z,94195.16
2022-12-06T22:28:05.910Z,94205.44
2022-12-06T22:30:32.300Z,94200.53
2022-12-06T22:32:58.702Z,94197.19
2022-12-06T22:35:25.086Z,94200.31
2022-12-06T22:37:51.498Z,94202.38
2022-12-06T22:40:18.240Z,94198.28
2022-12-06T22:42:44.648Z,94201.84
2022-12-06T22:45:11.333Z,94196.69
2022-12-06T22:47:37.743Z,94195.44
2022-12-06T22:50:04.807Z,94186.41
2022-12-06T22:52:31.271Z,94187.97
2022-12-06T22:54:57.732Z,94189.53
2022-12-06T22:57:24.169Z,94190.50
2022-12-06T22:59:50.554Z,94193.59
2022-12-06T23:02:17.093Z,94184.81
2022-12-06T23:04:43.565Z,94191.75
2022-12-06T23:07:09.965Z,94200.78
2022-12-06T23:09:36.654Z,94192.03
2022-12-06T23:12:03.400Z,94192.03
2022-12-06T23:14:29.855Z,94186.38
2022-12-06T23:16:56.623Z,94192.03
2022-12-06T23:19:23.135Z,94193.59
2022-12-06T23:21:49.834Z,94190.25
2022-12-06T23:24:16.507Z,94188.47
2022-12-06T23:26:46.582Z,94185.63
2022-12-06T23:29:14.324Z,94182.84
2022-12-06T23:31:43.675Z,94188.22
2022-12-06T23:34:10.074Z,94179.75
2022-12-06T23:36:36.850Z,94174.03
2022-12-06T23:39:05.235Z,94183.78
2022-12-06T23:41:32.154Z,94179.13
2022-12-06T23:43:59.053Z,94185.28
2022-12-06T23:46:28.938Z,94175.78
2022-12-06T23:48:56.214Z,94180.38
2022-12-06T23:51:30.732Z,94175.00
2022-12-06T23:53:59.495Z,94169.09
2022-12-06T23:56:28.523Z,94172.16
2022-12-06T23:58:55.403Z,94166.22
